Impacts TAF Board
For situational awareness. Not to be used for flight planning purposes.
IDs:

KSLC - Salt Lake City Intl, UT, US

Issued at 1120 UTC 10 Aug 2022
Updated at 1329 UTC 10 Aug 2022
Potential Impact None Slight Moderate High
Time1254Z 10/14Z 10/15Z 10/16Z 10/17Z 10/18Z 10/19Z 10/20Z 10/21Z 10/22Z 10/23Z 11/00Z 11/01Z 11/02Z>>
Type OBS PRVL PRVL PRVL PRVL PRVL PRVL PRVL PRVL PRVL PRVL PRVL PRVL PRVL
VIS 10 >6 >6 >6 >6 >6 >6 >6 >6 >6 >6 >6 >6 >6
CIG 150 -- -- -- -- -- 150 150 150 150 150 150 150 150
Cover BKN FEW FEW FEW FEW FEW BKN BKN BKN BKN BKN BKN BKN BKN
FltCat VFR VFR VFR VFR VFR VFR VFR VFR VFR VFR VFR VFR VFR VFR
WX -- -- -- -- -- -- -- -- -- -- VCSH VCSH VCSH VCSH
WDir 120 160 160 160 160 160 320 320 320 320 310 310 310 310
WSpd 7 6 6 6 6 6 9 9 9 9 10 10 10 10
WGst -- -- -- -- -- -- -- -- -- -- 20 20 20 20
WSHgt -- -- -- -- -- -- -- -- -- -- -- -- -- --
WSDir -- -- -- -- -- -- -- -- -- -- -- -- -- --
WSSpd -- -- -- -- -- -- -- -- -- -- -- -- -- --
Raw TAF
KSLC 101120Z 1012/1118 16006KT P6SM FEW100
  FM101900 32009KT P6SM SCT120 BKN150
  FM102300 31010G20KT P6SM VCSH FEW080 BKN150
  FM110400 33010KT P6SM FEW100 SCT150
  FM110700 16005KT P6SM FEW100 FEW150


Raw METAR
KSLC 101254Z 12007KT 10SM SCT110 BKN150 BKN220 26/11 A3016 RMK AO2 SLP145 T02560106
KSLC 101154Z 11003KT 10SM SCT110 26/11 A3015 RMK AO2 SLP141 T02610111 10289 20250 51014
KSLC 101054Z 00000KT 10SM SCT110 27/11 A3014 RMK AO2 SLP138 T02670106

METAR Board
Radar Display
Forecast Discussion
For situational awareness. Not to be used for flight planning purposes.